createdAt,value
2018-12-04T00:02:07.491Z,3.07
2018-12-04T00:04:36.299Z,3.20
2018-12-04T00:07:05.757Z,3.22
2018-12-04T00:09:34.515Z,3.40
2018-12-04T00:12:03.319Z,2.63
2018-12-04T00:14:32.134Z,3.10
2018-12-04T00:17:00.944Z,3.40
2018-12-04T00:19:29.708Z,3.00
2018-12-04T00:22:04.735Z,3.93
2018-12-04T00:24:33.551Z,3.33
2018-12-04T00:27:02.287Z,4.03
2018-12-04T00:29:31.198Z,3.40
2018-12-04T00:31:59.934Z,3.70
2018-12-04T00:34:28.659Z,3.13
2018-12-04T00:36:57.484Z,3.23
2018-12-04T00:39:26.214Z,4.13
2018-12-04T00:44:54.555Z,3.43
2018-12-04T00:47:28.902Z,4.33
2018-12-04T00:49:57.627Z,4.43
2018-12-04T00:52:26.451Z,3.30
2018-12-04T00:54:55.247Z,3.90
2018-12-04T00:57:24.061Z,3.40
2018-12-04T00:59:52.856Z,3.27
2018-12-04T01:02:21.768Z,3.40
2018-12-04T01:04:50.504Z,3.63
2018-12-04T01:07:19.663Z,4.00
2018-12-04T01:09:48.707Z,3.70
2018-12-04T01:12:17.578Z,3.05
2018-12-04T01:14:46.476Z,3.00
2018-12-04T01:17:15.250Z,3.40
2018-12-04T01:19:44.018Z,4.07
2018-12-04T01:22:12.789Z,3.27
2018-12-04T01:24:41.948Z,3.57
2018-12-04T01:27:10.743Z,3.50
2018-12-04T01:29:39.468Z,2.90
2018-12-04T01:32:09.415Z,3.83
2018-12-04T01:34:38.130Z,2.73
2018-12-04T01:37:06.934Z,3.40
2018-12-04T01:39:35.663Z,3.20
2018-12-04T01:42:05.204Z,2.97
2018-12-04T01:44:34.103Z,2.70
2018-12-04T01:47:02.892Z,3.03
2018-12-04T01:49:31.918Z,3.43
2018-12-04T01:52:00.712Z,3.27
2018-12-04T01:54:29.593Z,3.77
2018-12-04T01:56:58.407Z,3.20
2018-12-04T01:59:27.154Z,3.37
2018-12-04T02:01:56.023Z,3.40
2018-12-04T02:04:24.743Z,2.77
2018-12-04T02:06:53.492Z,2.33
2018-12-04T02:09:22.206Z,3.43
2018-12-04T02:11:50.983Z,3.10
2018-12-04T02:14:19.705Z,3.20
2018-12-04T02:16:48.640Z,3.20
2018-12-04T02:19:17.485Z,3.37
2018-12-04T02:21:46.254Z,2.93
2018-12-04T02:24:15.026Z,3.50
2018-12-04T02:26:43.980Z,2.90
2018-12-04T02:29:12.874Z,3.00
2018-12-04T02:31:41.646Z,2.77
2018-12-04T02:34:10.427Z,2.75
2018-12-04T02:36:39.289Z,3.53
2018-12-04T02:39:08.712Z,3.13
2018-12-04T02:41:37.559Z,3.57
2018-12-04T02:44:06.441Z,3.03
2018-12-04T02:46:35.260Z,2.87
2018-12-04T02:49:04.648Z,3.22
2018-12-04T02:51:34.787Z,3.10
2018-12-04T02:54:03.588Z,2.90
2018-12-04T02:56:32.468Z,3.37
2018-12-04T02:59:01.549Z,2.97
2018-12-04T03:01:30.733Z,3.47
2018-12-04T03:03:59.592Z,3.03
2018-12-04T03:06:28.643Z,3.10
2018-12-04T03:08:57.363Z,3.37
2018-12-04T03:11:26.179Z,2.73
2018-12-04T03:13:55.022Z,3.77
2018-12-04T03:16:23.751Z,3.23
2018-12-04T03:18:52.492Z,3.20
2018-12-04T03:21:21.234Z,3.20
2018-12-04T03:23:50.072Z,2.97
2018-12-04T03:26:18.858Z,3.58
2018-12-04T03:28:47.679Z,2.57
2018-12-04T03:31:16.444Z,2.70
2018-12-04T03:33:45.227Z,2.67
2018-12-04T03:36:14.247Z,3.07
2018-12-04T03:38:43.288Z,3.07
2018-12-04T03:41:12.331Z,3.20
2018-12-04T03:43:41.255Z,3.50
2018-12-04T03:46:10.004Z,2.60
2018-12-04T03:48:38.779Z,3.20
2018-12-04T03:51:07.586Z,2.27
2018-12-04T03:53:36.449Z,2.80
2018-12-04T03:56:05.611Z,3.77
2018-12-04T03:58:34.343Z,2.47
2018-12-04T04:01:03.328Z,2.80
2018-12-04T04:03:33.075Z,2.90
2018-12-04T04:06:02.024Z,3.73
2018-12-04T04:08:30.924Z,3.20
2018-12-04T04:10:59.702Z,2.57
2018-12-04T04:13:28.440Z,3.00
2018-12-04T04:15:57.315Z,3.00
2018-12-04T04:18:26.208Z,2.97
2018-12-04T04:20:54.935Z,2.60
2018-12-04T04:23:23.680Z,2.80
2018-12-04T04:25:52.492Z,2.43
2018-12-04T04:28:21.425Z,2.65
2018-12-04T04:30:50.288Z,2.80
2018-12-04T04:33:19.083Z,2.73
2018-12-04T04:35:49.781Z,3.43
2018-12-04T04:38:18.560Z,3.22
2018-12-04T04:40:47.347Z,2.67
2018-12-04T04:43:16.089Z,2.47
2018-12-04T04:45:44.996Z,2.50
2018-12-04T04:48:13.707Z,2.63
2018-12-04T04:50:42.495Z,2.73
2018-12-04T04:53:11.217Z,2.70
2018-12-04T04:55:40.058Z,2.30
2018-12-04T04:58:09.938Z,2.80
2018-12-04T05:00:39.040Z,3.00
2018-12-04T05:03:08.792Z,3.03
2018-12-04T05:05:40.019Z,3.10
2018-12-04T05:08:08.864Z,3.23
2018-12-04T05:10:37.681Z,3.23
2018-12-04T05:13:06.544Z,3.60
2018-12-04T05:15:35.469Z,2.60
2018-12-04T05:18:05.114Z,2.35
2018-12-04T05:20:33.927Z,2.67
2018-12-04T05:23:02.748Z,2.40
2018-12-04T05:25:31.708Z,2.27
2018-12-04T05:28:00.581Z,2.77
2018-12-04T05:30:29.329Z,2.30
2018-12-04T05:32:58.225Z,2.57
2018-12-04T05:35:26.948Z,2.80
2018-12-04T05:37:55.663Z,2.73
2018-12-04T05:40:24.470Z,2.60
2018-12-04T05:42:53.195Z,2.90
2018-12-04T05:45:21.942Z,2.87
2018-12-04T05:47:50.659Z,3.23
2018-12-04T05:50:19.718Z,4.45
2018-12-04T05:52:58.525Z,5.53
2018-12-04T05:55:27.513Z,5.10
2018-12-04T05:57:56.240Z,5.80
2018-12-04T06:00:25.307Z,4.63
2018-12-04T06:02:54.053Z,3.53
2018-12-04T06:05:22.840Z,4.77
2018-12-04T06:07:51.947Z,4.00
2018-12-04T06:10:20.659Z,2.87
2018-12-04T06:12:49.437Z,4.47
2018-12-04T06:15:18.232Z,5.77
2018-12-04T06:17:46.959Z,4.67
2018-12-04T06:20:15.767Z,4.13
2018-12-04T06:22:44.631Z,4.47
2018-12-04T06:25:13.575Z,2.85
2018-12-04T06:27:42.497Z,2.83
2018-12-04T06:30:11.363Z,2.90
2018-12-04T06:32:40.163Z,2.70
2018-12-04T06:35:09.060Z,3.12
2018-12-04T06:37:37.775Z,2.93
2018-12-04T06:40:06.667Z,2.20
2018-12-04T06:42:35.556Z,2.83
2018-12-04T06:45:05.258Z,5.92
2018-12-04T06:47:40.728Z,5.20
2018-12-04T06:50:10.911Z,6.00
2018-12-04T06:52:39.760Z,4.50
2018-12-04T06:55:09.103Z,3.70
2018-12-04T06:57:37.827Z,3.13
2018-12-04T07:00:07.846Z,10.00
2018-12-04T07:02:37.631Z,12.30
2018-12-04T07:05:06.777Z,7.37
2018-12-04T07:07:35.684Z,5.10
2018-12-04T07:10:11.787Z,4.53
2018-12-04T07:12:40.610Z,4.17
2018-12-04T07:15:09.327Z,4.70
2018-12-04T07:17:38.158Z,3.60
2018-12-04T07:20:08.274Z,5.53
2018-12-04T07:22:37.095Z,6.00
2018-12-04T07:25:06.803Z,4.97
2018-12-04T07:27:35.520Z,3.70
2018-12-04T07:30:07.135Z,3.47
2018-12-04T07:32:38.726Z,2.93
2018-12-04T07:35:08.207Z,2.97
2018-12-04T07:37:37.030Z,2.93
2018-12-04T07:40:06.967Z,3.62
2018-12-04T07:42:35.694Z,3.20
2018-12-04T07:45:05.691Z,3.10
2018-12-04T07:47:34.474Z,3.23
2018-12-04T07:50:03.388Z,3.20
2018-12-04T07:52:32.107Z,2.63
2018-12-04T07:55:00.834Z,3.70
2018-12-04T07:57:29.636Z,3.33
2018-12-04T07:59:58.420Z,3.67
2018-12-04T08:02:27.159Z,2.97
2018-12-04T08:04:55.891Z,4.07
2018-12-04T08:07:24.629Z,3.97
2018-12-04T08:09:53.349Z,3.20
2018-12-04T08:12:22.159Z,2.90
2018-12-04T08:14:51.048Z,3.40
2018-12-04T08:17:19.788Z,3.83
2018-12-04T08:19:48.552Z,2.90
2018-12-04T08:22:17.363Z,6.93
2018-12-04T08:24:46.223Z,5.20
2018-12-04T08:27:20.075Z,4.17
2018-12-04T08:29:48.810Z,3.83
2018-12-04T08:32:17.691Z,4.28
2018-12-04T08:34:46.500Z,3.83
2018-12-04T08:37:15.362Z,3.47
2018-12-04T08:39:44.395Z,3.30
2018-12-04T08:42:13.291Z,3.43
2018-12-04T08:44:42.025Z,3.87
2018-12-04T08:47:10.875Z,3.60
2018-12-04T08:49:40.169Z,3.70
2018-12-04T08:52:09.022Z,4.27
2018-12-04T08:54:37.882Z,3.47
2018-12-04T08:57:06.740Z,3.87
2018-12-04T08:59:35.544Z,3.67
2018-12-04T09:02:05.708Z,3.42
2018-12-04T09:04:34.447Z,4.57
2018-12-04T09:07:03.370Z,4.47
2018-12-04T09:09:32.143Z,3.87
2018-12-04T09:12:01.075Z,4.10
2018-12-04T09:14:30.158Z,3.67
2018-12-04T09:16:59.003Z,4.63
2018-12-04T09:19:27.762Z,4.73
2018-12-04T09:21:56.625Z,4.77
2018-12-04T09:24:30.549Z,3.70
2018-12-04T09:26:56.201Z,3.90
2018-12-04T09:29:24.986Z,4.77
2018-12-04T09:31:53.956Z,4.43
2018-12-04T09:34:22.814Z,3.47
2018-12-04T09:36:51.535Z,3.87
2018-12-04T09:39:20.276Z,3.30
2018-12-04T09:41:49.277Z,3.50
2018-12-04T09:44:18.061Z,3.70
2018-12-04T09:46:46.782Z,3.50
2018-12-04T09:49:15.605Z,3.57
2018-12-04T09:51:45.461Z,3.60
2018-12-04T09:54:14.356Z,3.37
2018-12-04T09:56:43.423Z,3.37
2018-12-04T09:59:12.246Z,4.30
2018-12-04T10:01:40.979Z,4.57
2018-12-04T10:04:09.767Z,3.55
2018-12-04T10:06:38.583Z,3.60
2018-12-04T10:09:09.045Z,4.00
2018-12-04T10:11:38.238Z,4.30
2018-12-04T10:14:07.227Z,3.50
2018-12-04T10:16:36.203Z,3.53
2018-12-04T10:19:05.014Z,3.90
2018-12-04T10:21:33.747Z,3.03
2018-12-04T10:24:02.695Z,3.27
2018-12-04T10:26:31.521Z,3.43
2018-12-04T10:29:00.372Z,5.00
2018-12-04T10:31:29.246Z,2.87
2018-12-04T10:33:58.111Z,3.33
2018-12-04T10:36:28.319Z,3.33
2018-12-04T10:38:57.142Z,3.13
2018-12-04T10:41:25.883Z,2.93
2018-12-04T10:43:54.640Z,3.20
2018-12-04T10:46:23.487Z,2.43
2018-12-04T10:48:52.570Z,2.60
2018-12-04T10:51:21.492Z,2.83
2018-12-04T10:53:50.284Z,3.73
2018-12-04T10:56:19.155Z,2.73
2018-12-04T10:58:48.149Z,2.87
2018-12-04T11:01:25.556Z,5.87
2018-12-04T11:03:54.579Z,3.23
2018-12-04T11:06:23.440Z,3.50
2018-12-04T11:08:52.303Z,2.90
2018-12-04T11:11:21.112Z,2.67
2018-12-04T11:13:49.906Z,3.98
2018-12-04T11:16:18.847Z,6.63
2018-12-04T11:18:47.726Z,4.10
2018-12-04T11:21:16.686Z,4.05
2018-12-04T11:23:45.430Z,5.67
2018-12-04T11:26:14.257Z,4.78
2018-12-04T11:28:43.083Z,6.08
2018-12-04T11:31:12.137Z,3.10
2018-12-04T11:33:41.255Z,2.63
2018-12-04T11:36:10.085Z,2.83
2018-12-04T11:38:38.829Z,3.70
2018-12-04T11:41:07.700Z,2.80
2018-12-04T11:43:36.539Z,3.60
2018-12-04T11:46:05.381Z,3.13
2018-12-04T11:48:34.135Z,2.93
2018-12-04T11:51:02.878Z,2.40
2018-12-04T11:53:31.807Z,3.50
2018-12-04T11:56:00.565Z,2.40
2018-12-04T11:58:29.341Z,2.70
2018-12-04T12:00:58.449Z,2.93
2018-12-04T12:03:27.168Z,2.93
2018-12-04T12:05:55.964Z,3.43
2018-12-04T12:08:26.699Z,3.42
2018-12-04T12:10:55.476Z,2.87
2018-12-04T12:13:24.360Z,2.93
2018-12-04T12:15:53.100Z,2.40
2018-12-04T12:18:21.807Z,3.60
2018-12-04T12:20:50.611Z,2.70
2018-12-04T12:23:19.424Z,2.60
2018-12-04T12:25:48.286Z,2.87
2018-12-04T12:28:17.716Z,2.87
2018-12-04T12:30:46.456Z,3.20
2018-12-04T12:33:15.187Z,2.93
2018-12-04T12:35:43.934Z,3.70
2018-12-04T12:38:13.255Z,4.30
2018-12-04T12:40:42.066Z,3.77
2018-12-04T12:43:10.956Z,2.70
2018-12-04T12:45:39.767Z,3.43
2018-12-04T12:48:08.735Z,2.73
2018-12-04T12:50:37.485Z,2.53
2018-12-04T12:53:06.211Z,3.23
2018-12-04T12:55:35.016Z,2.90
2018-12-04T12:58:04.723Z,2.45
2018-12-04T13:00:33.591Z,2.60
2018-12-04T13:03:02.358Z,2.47
2018-12-04T13:05:31.600Z,2.37
2018-12-04T13:08:01.520Z,2.30
2018-12-04T13:10:30.341Z,2.73
2018-12-04T13:12:59.165Z,2.77
2018-12-04T13:15:28.028Z,2.57
2018-12-04T13:17:56.846Z,2.70
2018-12-04T13:20:25.740Z,2.53
2018-12-04T13:22:54.535Z,2.50
2018-12-04T13:25:23.392Z,2.60
2018-12-04T13:27:52.191Z,2.70
2018-12-04T13:30:21.063Z,2.60
2018-12-04T13:32:50.053Z,2.43
2018-12-04T13:35:18.922Z,2.87
2018-12-04T13:37:47.794Z,2.73
2018-12-04T13:40:16.650Z,2.55
2018-12-04T13:42:45.720Z,2.80
2018-12-04T13:45:14.627Z,2.72
2018-12-04T13:47:43.708Z,2.30
2018-12-04T13:50:12.927Z,2.90
2018-12-04T13:52:42.076Z,6.50
2018-12-04T13:55:10.956Z,2.57
2018-12-04T13:57:39.782Z,2.97
2018-12-04T14:00:09.358Z,3.50
2018-12-04T14:02:38.212Z,3.07
2018-12-04T14:05:08.972Z,2.77
2018-12-04T14:07:38.016Z,2.93
2018-12-04T14:10:08.883Z,2.70
2018-12-04T14:12:37.808Z,2.98
2018-12-04T14:15:07.390Z,2.80
2018-12-04T14:17:36.227Z,2.90
2018-12-04T14:20:06.771Z,2.90
2018-12-04T14:22:35.863Z,2.40
2018-12-04T14:25:05.164Z,2.95
2018-12-04T14:27:34.031Z,3.57
2018-12-04T14:30:02.961Z,3.77
2018-12-04T14:32:32.299Z,3.80
2018-12-04T14:35:01.172Z,2.80
2018-12-04T14:37:31.639Z,3.57
2018-12-04T14:40:00.411Z,3.70
2018-12-04T14:42:29.370Z,3.20
2018-12-04T14:44:58.335Z,3.37
2018-12-04T14:47:27.149Z,2.93
2018-12-04T14:49:55.970Z,2.50
2018-12-04T14:52:24.955Z,2.30
2018-12-04T14:55:09.395Z,2.60
2018-12-04T14:57:38.513Z,3.07
2018-12-04T15:00:10.312Z,2.70
2018-12-04T15:02:40.886Z,3.37
2018-12-04T15:05:10.055Z,2.53
2018-12-04T15:07:38.945Z,2.53
2018-12-04T15:10:09.732Z,4.67
2018-12-04T15:12:38.687Z,4.70
2018-12-04T15:15:07.928Z,4.63
2018-12-04T15:17:36.910Z,4.20
2018-12-04T15:20:07.035Z,5.60
2018-12-04T15:22:35.983Z,7.33
2018-12-04T15:25:05.379Z,8.45
2018-12-04T15:27:34.200Z,6.60
2018-12-04T15:30:03.575Z,7.03
2018-12-04T15:32:32.433Z,7.37
2018-12-04T15:35:01.657Z,8.23
2018-12-04T15:37:31.503Z,6.97
2018-12-04T15:40:00.431Z,6.17
2018-12-04T15:42:29.183Z,5.20
2018-12-04T15:44:57.960Z,4.67
2018-12-04T15:47:26.747Z,4.70
2018-12-04T15:49:55.599Z,3.70
2018-12-04T15:52:24.739Z,2.60
2018-12-04T15:54:53.537Z,2.93
2018-12-04T15:57:23.307Z,2.80
2018-12-04T15:59:52.463Z,2.50
2018-12-04T16:02:43.154Z,2.83
2018-12-04T16:05:12.358Z,3.25
2018-12-04T16:07:41.169Z,3.10
2018-12-04T16:10:12.704Z,3.10
2018-12-04T16:12:41.444Z,2.93
2018-12-04T16:15:10.625Z,3.12
2018-12-04T16:17:45.964Z,3.50
2018-12-04T16:20:15.047Z,6.50
2018-12-04T16:22:44.807Z,9.17
2018-12-04T16:25:13.632Z,8.80
2018-12-04T16:27:42.392Z,8.43
2018-12-04T16:30:11.295Z,7.17
2018-12-04T16:32:40.331Z,7.07
2018-12-04T16:35:09.362Z,5.67
2018-12-04T16:37:38.160Z,4.20
2018-12-04T16:40:07.899Z,7.25
2018-12-04T16:42:36.646Z,7.27
2018-12-04T16:45:05.771Z,8.10
2018-12-04T16:47:34.625Z,7.30
2018-12-04T16:50:03.652Z,6.87
2018-12-04T16:52:32.375Z,7.80
2018-12-04T16:55:01.390Z,6.63
2018-12-04T16:57:30.243Z,5.97
2018-12-04T16:59:59.045Z,6.07
2018-12-04T17:02:28.271Z,5.43
2018-12-04T17:04:57.048Z,5.17
2018-12-04T17:07:25.840Z,5.53
2018-12-04T17:09:54.620Z,4.47
2018-12-04T17:12:23.415Z,5.00
2018-12-04T17:14:52.403Z,5.27
2018-12-04T17:17:21.215Z,4.90
2018-12-04T17:19:50.019Z,4.97
2018-12-04T17:22:18.899Z,5.83
2018-12-04T17:24:47.664Z,5.37
2018-12-04T17:27:16.538Z,4.40
2018-12-04T17:29:45.280Z,6.87
2018-12-04T17:32:14.100Z,7.17
2018-12-04T17:34:43.181Z,5.80
2018-12-04T17:37:12.173Z,4.85
2018-12-04T17:39:40.898Z,7.50
2018-12-04T17:42:09.731Z,8.63
2018-12-04T17:44:40.398Z,10.33
2018-12-04T17:47:09.369Z,9.87
2018-12-04T17:49:38.116Z,9.93
2018-12-04T17:52:13.957Z,6.77
2018-12-04T17:54:42.680Z,5.07
2018-12-04T17:57:11.744Z,4.50
2018-12-04T17:59:42.467Z,4.10
2018-12-04T18:02:13.474Z,4.50
2018-12-04T18:04:42.330Z,7.67
2018-12-04T18:07:13.087Z,9.57
2018-12-04T18:09:42.967Z,9.07
2018-12-04T18:12:13.779Z,7.40
2018-12-04T18:14:44.517Z,6.80
2018-12-04T18:17:13.568Z,6.15
2018-12-04T18:19:42.337Z,7.57
2018-12-04T18:22:11.174Z,7.03
2018-12-04T18:24:40.172Z,5.50
2018-12-04T18:27:09.154Z,4.67
2018-12-04T18:29:38.155Z,4.10
2018-12-04T18:32:07.264Z,4.30
2018-12-04T18:34:36.022Z,3.70
2018-12-04T18:37:04.835Z,3.70
2018-12-04T18:39:33.811Z,3.90
2018-12-04T18:42:02.892Z,3.63
2018-12-04T18:44:33.735Z,3.52
2018-12-04T18:47:02.956Z,3.27
2018-12-04T18:49:32.027Z,3.77
2018-12-04T18:52:00.935Z,4.60
2018-12-04T18:54:29.798Z,4.97
2018-12-04T18:56:58.611Z,4.57
2018-12-04T18:59:28.295Z,3.97
2018-12-04T19:01:57.198Z,4.00
2018-12-04T19:04:26.276Z,3.50
2018-12-04T19:06:57.839Z,3.50
2018-12-04T19:09:26.705Z,3.60
2018-12-04T19:11:55.645Z,3.57
2018-12-04T19:14:25.019Z,3.58
2018-12-04T19:16:54.500Z,3.63
2018-12-04T19:19:24.531Z,3.70
2018-12-04T19:21:53.922Z,4.07
2018-12-04T19:24:23.398Z,3.90
2018-12-04T19:26:52.125Z,5.10
2018-12-04T19:29:21.430Z,4.93
2018-12-04T19:31:50.542Z,4.83
2018-12-04T19:34:19.340Z,4.93
2018-12-04T19:36:48.335Z,4.60
2018-12-04T19:39:17.327Z,5.65
2018-12-04T19:41:46.312Z,5.17
2018-12-04T19:44:15.311Z,5.23
2018-12-04T19:46:44.375Z,4.60
2018-12-04T19:49:13.112Z,5.10
2018-12-04T19:51:41.953Z,8.03
2018-12-04T19:54:11.039Z,7.75
2018-12-04T19:56:40.413Z,6.97
2018-12-04T19:59:09.724Z,6.90
2018-12-04T20:01:38.635Z,6.10
2018-12-04T20:04:07.473Z,9.30
2018-12-04T20:06:36.212Z,9.23
2018-12-04T20:09:07.275Z,8.63
2018-12-04T20:11:38.278Z,7.50
2018-12-04T20:14:07.051Z,7.53
2018-12-04T20:16:35.772Z,7.27
2018-12-04T20:19:05.119Z,6.78
2018-12-04T20:21:34.324Z,6.42
2018-12-04T20:24:03.180Z,7.40
2018-12-04T20:26:31.944Z,9.80
2018-12-04T20:29:00.916Z,7.60
2018-12-04T20:31:29.679Z,6.30
2018-12-04T20:33:58.409Z,6.87
2018-12-04T20:36:27.123Z,5.58
2018-12-04T20:38:55.859Z,5.30
2018-12-04T20:41:24.672Z,5.17
2018-12-04T20:43:53.577Z,4.40
2018-12-04T20:46:22.680Z,4.25
2018-12-04T20:48:51.502Z,4.03
2018-12-04T20:51:20.245Z,3.93
2018-12-04T20:53:49.040Z,5.28
2018-12-04T20:56:17.840Z,4.93
2018-12-04T20:58:46.647Z,5.20
2018-12-04T21:01:15.743Z,6.90
2018-12-04T21:03:45.952Z,7.87
2018-12-04T21:06:14.715Z,9.97
2018-12-04T21:08:43.559Z,8.97
2018-12-04T21:11:12.509Z,7.97
2018-12-04T21:13:41.483Z,8.13
2018-12-04T21:16:10.207Z,7.72
2018-12-04T21:18:38.939Z,7.60
2018-12-04T21:21:08.236Z,7.17
2018-12-04T21:23:37.151Z,8.83
2018-12-04T21:26:06.027Z,8.43
2018-12-04T21:28:34.752Z,8.28
2018-12-04T21:31:10.060Z,8.17
2018-12-04T21:33:44.142Z,6.70
2018-12-04T21:36:18.512Z,8.53
2018-12-04T21:38:53.406Z,7.90
2018-12-04T21:44:20.441Z,6.60
2018-12-04T21:46:54.761Z,7.33
2018-12-04T21:49:24.502Z,7.63
2018-12-04T21:51:53.523Z,9.83
2018-12-04T21:54:22.491Z,9.97
2018-12-04T21:56:51.551Z,10.07
2018-12-04T21:59:20.454Z,9.00
2018-12-04T22:01:49.543Z,9.23
2018-12-04T22:04:18.383Z,7.47
2018-12-04T22:06:47.199Z,7.37
2018-12-04T22:09:15.944Z,7.12
2018-12-04T22:11:44.803Z,7.40
2018-12-04T22:14:13.668Z,7.70
2018-12-04T22:16:42.466Z,6.07
2018-12-04T22:19:11.271Z,6.70
2018-12-04T22:21:40.171Z,6.67
2018-12-04T22:24:09.260Z,5.67
2018-12-04T22:26:38.071Z,6.03
2018-12-04T22:29:06.856Z,6.17
2018-12-04T22:31:35.956Z,6.00
2018-12-04T22:34:05.307Z,8.08
2018-12-04T22:36:34.059Z,7.57
2018-12-04T22:39:04.974Z,9.33
2018-12-04T22:41:35.715Z,9.43
2018-12-04T22:44:05.141Z,9.63
2018-12-04T22:46:33.879Z,8.80
2018-12-04T22:49:03.613Z,8.10
2018-12-04T22:51:32.438Z,7.73
2018-12-04T22:54:01.378Z,7.07
2018-12-04T22:56:30.154Z,6.63
2018-12-04T22:58:59.064Z,6.53
2018-12-04T23:01:38.435Z,6.70
2018-12-04T23:04:07.555Z,6.63
2018-12-04T23:06:36.921Z,7.90
2018-12-04T23:09:08.979Z,6.93
2018-12-04T23:11:39.883Z,8.23
2018-12-04T23:14:08.811Z,9.33
2018-12-04T23:16:39.116Z,8.90
2018-12-04T23:19:07.859Z,8.97
2018-12-04T23:21:36.657Z,9.77
2018-12-04T23:24:05.847Z,10.20
2018-12-04T23:26:34.876Z,10.10
2018-12-04T23:29:04.007Z,12.27
2018-12-04T23:31:32.747Z,12.57
2018-12-04T23:34:01.466Z,14.13
2018-12-04T23:36:30.203Z,14.43
2018-12-04T23:38:59.016Z,13.57
2018-12-04T23:41:27.831Z,13.43
2018-12-04T23:43:56.630Z,11.60
2018-12-04T23:46:25.641Z,13.10
2018-12-04T23:48:54.525Z,10.53
2018-12-04T23:51:23.299Z,11.53
2018-12-04T23:53:52.187Z,11.33
2018-12-04T23:56:21.227Z,10.10
2018-12-04T23:58:50.294Z,7.97
